Time;durP1;ratioP1;P1;durP2;ratioP2;P2;SDS_P1;SDS_P2;PMS_P1;PMS_P2;Temp;Humidity;BMP_temperature;BMP_pressure;BME280_temperature;BME280_humidity;BME280_pressure;Samples;Min_cycle;Max_cycle;Signal;HPM_P1;HPM_P2
2023/01/28 00:01:39;;;;;;;12.43;10.90;;;2.50;99.90;;;;;;5021448;28;20448;-50
2023/01/28 00:04:08;;;;;;;12.30;11.00;;;2.50;99.90;;;;;;5024519;28;20046;-49
2023/01/28 00:06:35;;;;;;;12.05;10.55;;;2.50;99.90;;;;;;5014255;28;20528;-45
2023/01/28 00:09:02;;;;;;;12.98;11.40;;;2.50;99.90;;;;;;5019985;28;20131;-51
2023/01/28 00:11:29;;;;;;;12.73;11.43;;;2.50;99.90;;;;;;5030983;28;20371;-45
2023/01/28 00:13:56;;;;;;;14.40;11.77;;;2.50;99.90;;;;;;5027338;28;20056;-52
2023/01/28 00:16:23;;;;;;;15.60;12.60;;;2.40;99.90;;;;;;5031394;28;20053;-52
2023/01/28 00:18:50;;;;;;;14.93;12.30;;;2.50;99.90;;;;;;5025422;28;20064;-51
2023/01/28 00:21:18;;;;;;;14.15;11.88;;;2.40;99.90;;;;;;5028733;28;20053;-49
2023/01/28 00:23:48;;;;;;;17.20;13.00;;;2.40;99.90;;;;;;5029690;28;20064;-49
2023/01/28 00:26:15;;;;;;;15.77;12.55;;;2.40;99.90;;;;;;5017034;28;20061;-46
2023/01/28 00:28:42;;;;;;;14.63;13.02;;;2.40;99.90;;;;;;5026527;28;20045;-50
2023/01/28 00:31:09;;;;;;;16.92;11.90;;;2.40;99.90;;;;;;5027199;28;20367;-51
2023/01/28 00:33:36;;;;;;;15.32;12.93;;;2.40;99.90;;;;;;5031533;28;20516;-51
2023/01/28 00:36:05;;;;;;;14.63;12.80;;;2.30;99.90;;;;;;5026589;28;20046;-50
2023/01/28 00:38:33;;;;;;;16.55;12.82;;;2.30;99.90;;;;;;5022734;28;20124;-49
2023/01/28 00:41:07;;;;;;;16.80;14.07;;;2.40;99.90;;;;;;5030030;28;20079;-53
2023/01/28 00:43:34;;;;;;;16.25;13.70;;;2.30;99.90;;;;;;5031413;28;20046;-47
2023/01/28 00:46:01;;;;;;;11.25;10.15;;;2.30;99.90;;;;;;5030238;28;20057;-51
2023/01/28 00:48:28;;;;;;;12.63;11.02;;;2.30;99.90;;;;;;5030183;28;20053;-47
2023/01/28 00:50:55;;;;;;;14.02;12.55;;;2.30;99.90;;;;;;5035833;28;20537;-52
2023/01/28 00:53:22;;;;;;;13.70;12.32;;;2.40;99.90;;;;;;5030301;28;20049;-52
2023/01/28 00:55:51;;;;;;;15.02;12.60;;;2.30;99.90;;;;;;5029659;28;20045;-51
2023/01/28 00:58:18;;;;;;;14.23;12.75;;;2.40;99.90;;;;;;5026231;28;20103;-52
2023/01/28 01:00:45;;;;;;;14.43;12.93;;;2.40;99.90;;;;;;5027842;28;20061;-52
2023/01/28 01:03:12;;;;;;;14.98;12.38;;;2.30;99.90;;;;;;5027634;28;20049;-53
2023/01/28 01:05:39;;;;;;;15.23;13.15;;;2.40;99.90;;;;;;5029823;28;20053;-45
2023/01/28 01:08:06;;;;;;;14.75;12.88;;;2.40;99.90;;;;;;5030149;28;20140;-50
2023/01/28 01:10:33;;;;;;;14.68;13.15;;;2.40;99.90;;;;;;5030727;28;20060;-51
2023/01/28 01:13:02;;;;;;;16.02;13.48;;;2.40;99.90;;;;;;5029589;28;20521;-51
2023/01/28 01:15:28;;;;;;;19.17;15.02;;;2.40;99.90;;;;;;5031242;28;20099;-53
2023/01/28 01:17:56;;;;;;;16.52;14.70;;;2.40;99.90;;;;;;5028283;28;20758;-49
2023/01/28 01:20:24;;;;;;;16.90;14.70;;;2.30;99.90;;;;;;5030509;28;20049;-49
2023/01/28 01:22:51;;;;;;;18.63;14.50;;;2.40;99.90;;;;;;5028797;28;20402;-52
2023/01/28 01:25:18;;;;;;;16.35;14.23;;;2.40;99.90;;;;;;5030464;28;20441;-51
2023/01/28 01:27:45;;;;;;;18.20;14.25;;;2.30;99.90;;;;;;5031062;28;20049;-53
2023/01/28 01:30:14;;;;;;;15.52;13.77;;;2.30;99.90;;;;;;5033086;28;20042;-50
2023/01/28 01:32:41;;;;;;;14.88;13.27;;;2.30;99.90;;;;;;5033878;28;20064;-50
2023/01/28 01:35:10;;;;;;;16.38;13.60;;;2.30;99.90;;;;;;5034673;28;20060;-51
2023/01/28 01:37:36;;;;;;;18.88;14.45;;;2.20;99.90;;;;;;5035378;28;20056;-51
2023/01/28 01:40:04;;;;;;;15.13;13.57;;;2.20;99.90;;;;;;5029406;28;20415;-51
2023/01/28 01:42:31;;;;;;;16.88;14.10;;;2.20;99.90;;;;;;5035430;28;20051;-48
2023/01/28 01:45:01;;;;;;;18.67;14.77;;;2.20;99.90;;;;;;5034060;28;20064;-49
2023/01/28 01:47:32;;;;;;;14.48;12.98;;;2.20;99.90;;;;;;5035586;28;20136;-51
2023/01/28 01:49:59;;;;;;;15.50;13.60;;;2.20;99.90;;;;;;5042312;28;20045;-51
2023/01/28 01:52:29;;;;;;;14.50;12.38;;;2.20;99.90;;;;;;5041814;28;20049;-53
2023/01/28 01:54:57;;;;;;;15.00;13.40;;;2.20;99.90;;;;;;5033638;28;20052;-49
2023/01/28 01:57:26;;;;;;;14.70;12.77;;;2.20;99.90;;;;;;5035053;28;20401;-52
2023/01/28 01:59:53;;;;;;;15.25;13.00;;;2.10;99.90;;;;;;5033595;28;20489;-49
2023/01/28 02:02:20;;;;;;;16.15;13.57;;;2.10;99.90;;;;;;5032782;28;20681;-49
2023/01/28 02:04:49;;;;;;;15.02;13.32;;;2.30;99.90;;;;;;5031845;28;20107;-53
2023/01/28 02:07:16;;;;;;;16.60;13.82;;;2.20;99.90;;;;;;5033758;28;20064;-51
2023/01/28 02:09:42;;;;;;;14.23;12.82;;;2.20;99.90;;;;;;5032840;28;20077;-48
2023/01/28 02:12:11;;;;;;;14.18;12.68;;;2.20;99.90;;;;;;5033374;28;20461;-51
2023/01/28 02:14:41;;;;;;;14.25;12.57;;;2.20;99.90;;;;;;5033902;28;20171;-48
2023/01/28 02:17:08;;;;;;;13.57;12.13;;;2.20;99.90;;;;;;5034335;28;20045;-48
2023/01/28 02:19:37;;;;;;;15.38;11.57;;;2.10;99.90;;;;;;5033936;28;20085;-50
2023/01/28 02:22:16;;;;;;;13.52;12.23;;;2.30;99.90;;;;;;5033835;28;20037;-50
2023/01/28 02:24:57;;;;;;;14.48;11.95;;;2.10;99.90;;;;;;5034024;28;20104;-50
2023/01/28 02:27:27;;;;;;;12.23;11.13;;;2.20;99.90;;;;;;5033036;28;20386;-50
2023/01/28 02:29:58;;;;;;;13.10;11.80;;;2.20;99.90;;;;;;5030904;28;20348;-51
2023/01/28 02:32:27;;;;;;;13.00;11.77;;;2.20;99.90;;;;;;5033610;28;20053;-48
2023/01/28 02:34:58;;;;;;;12.48;11.23;;;2.20;99.90;;;;;;5032704;28;20085;-50
2023/01/28 02:37:27;;;;;;;12.70;11.50;;;2.10;99.90;;;;;;5031502;28;20053;-48
2023/01/28 02:39:55;;;;;;;12.88;11.18;;;2.10;99.90;;;;;;5032480;28;20096;-50
2023/01/28 02:42:23;;;;;;;15.50;12.30;;;2.10;99.90;;;;;;5031720;28;20115;-50
2023/01/28 02:44:50;;;;;;;14.75;13.25;;;2.10;99.90;;;;;;5032911;28;20050;-52
2023/01/28 02:50:04;;;;;;;12.70;11.10;;;2.10;99.90;;;;;;5041168;28;20559;-51
2023/01/28 02:55:29;;;;;;;12.45;11.15;;;2.10;99.90;;;;;;5019475;28;20045;-52
2023/01/28 02:58:00;;;;;;;13.00;11.70;;;2.00;99.90;;;;;;5032428;28;20093;-49
2023/01/28 03:00:28;;;;;;;13.45;12.05;;;2.10;99.90;;;;;;5033151;28;20084;-46
2023/01/28 03:02:59;;;;;;;13.40;12.10;;;2.10;99.90;;;;;;5029770;28;20089;-50
2023/01/28 03:05:27;;;;;;;14.45;12.90;;;2.10;99.90;;;;;;5032147;28;20281;-51
2023/01/28 03:07:54;;;;;;;14.00;12.50;;;2.10;99.90;;;;;;5031625;28;20535;-50
2023/01/28 03:10:21;;;;;;;13.13;11.77;;;2.10;99.90;;;;;;5027924;28;20112;-49
2023/01/28 03:37:41;;;;;;;15.93;11.50;;;2.00;99.90;;;;;;5029782;28;20057;-52
2023/01/28 03:40:09;;;;;;;12.88;11.00;;;2.10;99.90;;;;;;5013846;28;20050;-47
2023/01/28 03:42:36;;;;;;;12.77;10.93;;;2.00;99.90;;;;;;5032007;28;20053;-51
2023/01/28 03:45:04;;;;;;;12.00;9.82;;;2.00;99.90;;;;;;5031909;28;20482;-51
2023/01/28 03:47:31;;;;;;;13.45;11.35;;;2.00;99.90;;;;;;5031635;28;20059;-53
2023/01/28 03:49:59;;;;;;;11.18;10.02;;;2.00;99.90;;;;;;5036854;28;20084;-48
2023/01/28 03:52:27;;;;;;;13.80;10.73;;;2.00;99.90;;;;;;5031986;28;20103;-52
2023/01/28 03:54:54;;;;;;;12.30;10.48;;;2.10;99.90;;;;;;5031138;28;20128;-51
2023/01/28 03:57:22;;;;;;;11.65;10.23;;;2.10;99.90;;;;;;5030506;28;20091;-50
2023/01/28 03:59:49;;;;;;;12.32;10.43;;;2.00;99.90;;;;;;5032706;28;20045;-52
2023/01/28 04:02:16;;;;;;;11.38;10.13;;;2.00;99.90;;;;;;5032439;28;20390;-51
2023/01/28 04:04:43;;;;;;;13.25;10.05;;;2.10;99.90;;;;;;5032855;28;20492;-53
2023/01/28 04:07:13;;;;;;;12.50;10.90;;;2.10;99.90;;;;;;5031013;28;20056;-48
2023/01/28 04:09:39;;;;;;;11.13;10.00;;;2.10;99.90;;;;;;5030975;28;20057;-47
2023/01/28 04:12:07;;;;;;;12.00;10.35;;;2.10;99.90;;;;;;5032115;28;20053;-45
2023/01/28 04:14:33;;;;;;;17.25;11.18;;;2.10;99.90;;;;;;5031216;28;20152;-47
2023/01/28 04:17:00;;;;;;;12.35;10.60;;;2.10;99.90;;;;;;5025331;28;20137;-49
2023/01/28 04:19:27;;;;;;;12.80;10.07;;;2.10;99.90;;;;;;5029887;28;20452;-50
2023/01/28 04:21:54;;;;;;;12.75;10.52;;;2.10;99.90;;;;;;5027311;28;20049;-51
2023/01/28 04:24:22;;;;;;;11.57;10.32;;;2.10;99.90;;;;;;5030910;28;20107;-52
2023/01/28 04:26:49;;;;;;;13.40;11.23;;;2.00;99.90;;;;;;5030957;28;20049;-50
2023/01/28 04:29:16;;;;;;;13.77;11.57;;;2.10;99.90;;;;;;5032740;28;20574;-51
2023/01/28 04:31:48;;;;;;;15.23;12.27;;;2.10;99.90;;;;;;5029436;28;20065;-50
2023/01/28 04:34:19;;;;;;;14.15;12.00;;;2.10;99.90;;;;;;5029063;28;20543;-53
2023/01/28 04:36:46;;;;;;;14.85;11.90;;;2.10;99.90;;;;;;5030506;28;20133;-51
2023/01/28 04:39:12;;;;;;;13.68;11.25;;;2.10;99.90;;;;;;5030317;28;20041;-51
2023/01/28 04:41:41;;;;;;;13.68;11.43;;;2.10;99.90;;;;;;5031738;28;20087;-52
2023/01/28 04:44:08;;;;;;;18.27;12.05;;;2.10;99.90;;;;;;5031722;28;20057;-52
2023/01/28 04:46:34;;;;;;;15.85;12.45;;;2.10;99.90;;;;;;5031933;28;20098;-53
2023/01/28 04:49:02;;;;;;;14.50;11.35;;;2.20;99.90;;;;;;5029974;28;20107;-47
2023/01/28 04:51:29;;;;;;;13.15;10.02;;;2.20;99.90;;;;;;5035932;28;20051;-53
2023/01/28 04:53:55;;;;;;;15.13;11.68;;;2.10;99.90;;;;;;5031039;28;20401;-49
2023/01/28 04:56:22;;;;;;;13.02;10.07;;;2.10;99.90;;;;;;5030234;28;20045;-50
2023/01/28 04:58:50;;;;;;;12.75;10.60;;;2.10;99.90;;;;;;5030924;28;20480;-52
2023/01/28 05:01:17;;;;;;;13.43;10.80;;;2.20;99.90;;;;;;5028716;28;20092;-52
2023/01/28 05:03:44;;;;;;;12.80;11.23;;;2.10;99.90;;;;;;5019556;28;20551;-48
2023/01/28 05:06:11;;;;;;;14.82;11.98;;;2.20;99.90;;;;;;5018235;28;20053;-38
2023/01/28 05:08:38;;;;;;;12.63;11.13;;;2.20;99.90;;;;;;5024249;28;20430;-47
2023/01/28 05:11:05;;;;;;;14.13;10.70;;;2.10;99.90;;;;;;5038938;28;20126;-48
2023/01/28 05:13:31;;;;;;;11.77;9.95;;;2.20;99.90;;;;;;5021814;28;20440;-48
2023/01/28 05:16:00;;;;;;;11.00;9.30;;;2.20;99.90;;;;;;5027763;28;20670;-45
2023/01/28 05:18:26;;;;;;;13.55;8.40;;;2.20;99.90;;;;;;5030279;28;20053;-48
2023/01/28 05:20:56;;;;;;;10.23;8.68;;;2.20;99.90;;;;;;5035969;28;20095;-51
2023/01/28 05:23:23;;;;;;;10.32;8.65;;;2.20;99.90;;;;;;5032484;28;20468;-51
2023/01/28 05:25:50;;;;;;;9.70;8.70;;;2.20;99.90;;;;;;5033909;28;20091;-51
2023/01/28 05:28:16;;;;;;;13.77;8.80;;;2.20;99.90;;;;;;5032917;28;20037;-48
2023/01/28 05:30:43;;;;;;;11.80;9.57;;;2.20;99.90;;;;;;5033022;28;20377;-50
2023/01/28 05:33:11;;;;;;;12.60;10.07;;;2.20;99.90;;;;;;5030145;28;20052;-52
2023/01/28 05:35:38;;;;;;;13.70;11.27;;;2.20;99.90;;;;;;5031130;28;20057;-49
2023/01/28 05:38:05;;;;;;;13.20;10.75;;;2.20;99.90;;;;;;5029246;28;20053;-45
2023/01/28 05:40:32;;;;;;;14.65;11.88;;;2.10;99.90;;;;;;5023835;28;20054;-48
2023/01/28 05:42:59;;;;;;;13.23;11.75;;;2.20;99.90;;;;;;5023007;28;20049;-48
2023/01/28 05:45:26;;;;;;;14.65;12.05;;;2.20;99.90;;;;;;5025506;28;20103;-52
2023/01/28 05:47:52;;;;;;;13.02;11.27;;;2.20;99.90;;;;;;5022510;28;20145;-48
2023/01/28 05:50:21;;;;;;;13.32;11.70;;;2.20;99.90;;;;;;5023713;28;21148;-45
2023/01/28 05:52:47;;;;;;;13.02;10.88;;;2.20;99.90;;;;;;5032119;28;20512;-52
2023/01/28 05:55:14;;;;;;;14.55;12.45;;;2.20;99.90;;;;;;5032696;28;20107;-43
2023/01/28 05:57:43;;;;;;;14.45;12.73;;;2.20;99.90;;;;;;5033509;28;20131;-50
2023/01/28 06:00:11;;;;;;;15.95;13.40;;;2.20;99.90;;;;;;5033148;28;20052;-45
2023/01/28 06:02:38;;;;;;;14.95;12.82;;;2.20;99.90;;;;;;5034078;28;20084;-50
2023/01/28 06:05:05;;;;;;;16.33;13.13;;;2.20;99.90;;;;;;5033754;28;20509;-52
2023/01/28 06:07:33;;;;;;;14.32;11.85;;;2.20;99.90;;;;;;5031847;28;20046;-48
2023/01/28 06:10:00;;;;;;;15.02;12.70;;;2.20;99.90;;;;;;5032542;28;20497;-52
2023/01/28 06:12:27;;;;;;;18.42;13.45;;;2.20;99.90;;;;;;5031784;28;20049;-49
2023/01/28 06:14:54;;;;;;;16.58;13.98;;;2.20;99.90;;;;;;5032178;28;20517;-51
2023/01/28 06:17:20;;;;;;;17.05;14.40;;;2.20;99.90;;;;;;5027025;28;20092;-50
2023/01/28 06:19:47;;;;;;;15.80;13.48;;;2.20;99.90;;;;;;5027434;28;20179;-41
2023/01/28 06:22:17;;;;;;;18.42;13.70;;;2.20;99.90;;;;;;5027790;28;20085;-44
2023/01/28 06:24:45;;;;;;;16.35;13.55;;;2.20;99.90;;;;;;5022961;28;20060;-48
2023/01/28 06:27:12;;;;;;;19.83;15.18;;;2.20;99.90;;;;;;5022778;28;20093;-48
2023/01/28 06:29:39;;;;;;;18.95;14.45;;;2.20;99.90;;;;;;5022160;28;20111;-47
2023/01/28 06:32:05;;;;;;;15.18;12.98;;;2.20;99.90;;;;;;5021923;28;21213;-51
2023/01/28 06:34:32;;;;;;;14.70;13.10;;;2.10;99.90;;;;;;5023360;28;20141;-45
2023/01/28 06:36:59;;;;;;;17.42;14.13;;;2.10;99.90;;;;;;5027512;28;20123;-50
2023/01/28 06:39:30;;;;;;;16.40;12.10;;;2.20;99.90;;;;;;5033360;28;20045;-51
2023/01/28 06:41:58;;;;;;;14.90;12.93;;;2.10;99.90;;;;;;5032078;28;20501;-50
2023/01/28 06:44:25;;;;;;;15.68;12.98;;;2.10;99.90;;;;;;5030272;28;20574;-52
2023/01/28 06:46:52;;;;;;;13.20;11.73;;;2.10;99.90;;;;;;5027472;28;20060;-51
2023/01/28 06:49:19;;;;;;;18.05;13.65;;;2.10;99.90;;;;;;5028108;28;20072;-44
2023/01/28 06:51:46;;;;;;;16.88;13.50;;;2.10;99.90;;;;;;5032465;28;20053;-50
2023/01/28 06:54:13;;;;;;;14.93;12.63;;;2.10;99.90;;;;;;5030898;28;20135;-50
2023/01/28 06:56:39;;;;;;;18.67;15.27;;;2.10;99.90;;;;;;5032412;28;20567;-47
2023/01/28 06:59:07;;;;;;;19.20;13.73;;;2.20;99.90;;;;;;5033107;28;20073;-49
2023/01/28 07:01:34;;;;;;;16.92;13.60;;;2.10;99.90;;;;;;5029907;28;20068;-50
2023/01/28 07:04:01;;;;;;;17.90;13.13;;;2.20;99.90;;;;;;5032154;28;20135;-49
2023/01/28 07:06:28;;;;;;;18.33;13.15;;;2.20;99.90;;;;;;5029807;28;20045;-46
2023/01/28 07:08:55;;;;;;;18.65;13.85;;;2.10;99.90;;;;;;5032342;28;20448;-49
2023/01/28 07:11:21;;;;;;;16.75;14.15;;;2.10;99.90;;;;;;5030437;28;20103;-49
2023/01/28 07:13:48;;;;;;;15.80;13.40;;;2.10;99.90;;;;;;5025083;28;20061;-50
2023/01/28 07:16:16;;;;;;;17.20;14.40;;;2.10;99.90;;;;;;5033024;28;20095;-51
2023/01/28 07:18:43;;;;;;;22.58;14.80;;;2.10;99.90;;;;;;5030223;28;20054;-49
2023/01/28 07:21:10;;;;;;;20.58;14.38;;;2.10;99.90;;;;;;5032205;28;20083;-48
2023/01/28 07:23:38;;;;;;;17.48;13.90;;;2.10;99.90;;;;;;5030359;28;20093;-49
2023/01/28 07:26:05;;;;;;;16.90;13.93;;;2.20;99.90;;;;;;5031496;28;20076;-49
2023/01/28 07:28:32;;;;;;;16.55;13.05;;;2.10;99.90;;;;;;5029355;28;20081;-51
2023/01/28 07:30:59;;;;;;;20.48;15.07;;;2.10;99.90;;;;;;5032372;28;20096;-48
2023/01/28 07:33:27;;;;;;;18.45;14.27;;;2.10;99.90;;;;;;5033798;28;20053;-52
2023/01/28 07:35:54;;;;;;;17.38;14.18;;;2.20;99.90;;;;;;5023429;28;20492;-48
2023/01/28 07:38:21;;;;;;;17.77;14.70;;;2.10;99.90;;;;;;5027234;28;20162;-50
2023/01/28 07:40:48;;;;;;;15.50;13.30;;;2.10;99.90;;;;;;5030024;28;20501;-49
2023/01/28 07:43:14;;;;;;;16.70;13.15;;;2.20;99.90;;;;;;5033401;28;20053;-51
2023/01/28 07:45:41;;;;;;;18.65;13.73;;;2.10;99.90;;;;;;5031811;28;20563;-49
2023/01/28 07:48:09;;;;;;;17.15;13.32;;;2.10;99.90;;;;;;5030787;28;20053;-47
2023/01/28 07:50:37;;;;;;;19.70;14.18;;;2.10;99.90;;;;;;5033039;28;20084;-47
2023/01/28 07:53:04;;;;;;;16.80;13.95;;;2.10;99.90;;;;;;5028441;28;20045;-45
2023/01/28 07:55:31;;;;;;;16.85;13.20;;;2.10;99.90;;;;;;5024217;28;20110;-50
2023/01/28 07:57:59;;;;;;;19.55;14.15;;;2.10;99.90;;;;;;5031473;28;20081;-48
2023/01/28 08:00:27;;;;;;;18.15;13.45;;;2.10;99.90;;;;;;5030494;28;20049;-51
2023/01/28 08:02:55;;;;;;;17.10;13.25;;;1.90;99.90;;;;;;5029480;28;20083;-50
2023/01/28 08:05:23;;;;;;;18.25;13.85;;;2.10;99.90;;;;;;5029427;28;20050;-48
2023/01/28 08:07:51;;;;;;;20.02;14.27;;;2.10;99.90;;;;;;5030235;28;20065;-48
2023/01/28 08:10:18;;;;;;;19.05;14.00;;;2.10;99.90;;;;;;5030458;28;20046;-46
2023/01/28 08:12:52;;;;;;;15.75;12.55;;;2.10;99.90;;;;;;5025391;28;20073;-54
2023/01/28 08:15:19;;;;;;;15.30;12.65;;;2.00;99.90;;;;;;5026291;28;20045;-51
2023/01/28 08:17:46;;;;;;;16.55;12.60;;;2.00;99.90;;;;;;5030627;28;20111;-52
2023/01/28 08:20:13;;;;;;;15.13;11.63;;;2.10;99.90;;;;;;5031525;28;20104;-51
2023/01/28 08:22:40;;;;;;;15.50;12.02;;;2.00;99.90;;;;;;5012833;28;20050;-49
2023/01/28 08:25:09;;;;;;;13.65;11.65;;;2.00;99.90;;;;;;5028458;28;20045;-49
2023/01/28 08:27:35;;;;;;;15.25;11.95;;;2.00;99.90;;;;;;5030761;28;20572;-49
2023/01/28 08:30:02;;;;;;;23.65;15.65;;;2.00;99.90;;;;;;5031230;28;20167;-53
2023/01/28 08:32:29;;;;;;;19.13;12.40;;;2.00;99.90;;;;;;5028208;28;20128;-53
2023/01/28 08:34:56;;;;;;;16.80;12.30;;;2.00;99.90;;;;;;5030981;28;20578;-48
2023/01/28 08:37:23;;;;;;;15.70;12.52;;;2.10;99.90;;;;;;5031058;28;20057;-50
2023/01/28 08:39:50;;;;;;;14.00;11.63;;;2.10;99.90;;;;;;5030333;28;20162;-51
2023/01/28 08:42:18;;;;;;;14.13;11.15;;;2.10;99.90;;;;;;5031788;28;20081;-45
2023/01/28 08:44:46;;;;;;;15.65;11.93;;;2.10;99.90;;;;;;5031024;28;20089;-49
2023/01/28 08:47:13;;;;;;;14.75;12.27;;;2.10;99.90;;;;;;5032239;28;20050;-52
2023/01/28 08:49:40;;;;;;;17.23;12.18;;;2.10;99.90;;;;;;5032250;28;20099;-50
2023/01/28 08:52:07;;;;;;;16.17;11.90;;;2.10;99.90;;;;;;5029250;28;20051;-48
2023/01/28 08:54:35;;;;;;;17.00;11.90;;;2.10;99.90;;;;;;5031566;28;20107;-49
2023/01/28 08:57:02;;;;;;;15.73;12.23;;;2.20;99.90;;;;;;5031220;28;20075;-44
2023/01/28 08:59:30;;;;;;;14.10;12.07;;;2.20;99.90;;;;;;5031060;28;20448;-52
2023/01/28 09:01:57;;;;;;;15.30;11.73;;;2.20;99.90;;;;;;5029858;28;20092;-51
2023/01/28 09:04:24;;;;;;;15.15;12.23;;;2.30;99.90;;;;;;5029399;28;20045;-49
2023/01/28 09:06:51;;;;;;;15.10;11.95;;;2.20;99.90;;;;;;5029482;28;20091;-43
2023/01/28 09:09:18;;;;;;;16.23;12.07;;;2.20;99.90;;;;;;5017722;28;20121;-49
2023/01/28 09:11:44;;;;;;;17.02;12.75;;;2.30;99.90;;;;;;5028287;28;20080;-50
2023/01/28 09:14:11;;;;;;;16.63;12.07;;;2.40;99.90;;;;;;5028817;28;20068;-44
2023/01/28 09:16:39;;;;;;;14.15;11.95;;;2.40;99.90;;;;;;5029051;28;20057;-44
2023/01/28 09:19:06;;;;;;;16.73;13.20;;;2.50;99.90;;;;;;5029566;28;20053;-50
2023/01/28 09:21:33;;;;;;;20.55;13.55;;;2.60;99.90;;;;;;5029661;28;20053;-51
2023/01/28 09:24:00;;;;;;;14.68;11.13;;;2.70;99.90;;;;;;5025572;28;20099;-50
2023/01/28 09:26:27;;;;;;;14.40;11.88;;;2.80;99.90;;;;;;5021331;28;20053;-52
2023/01/28 09:28:54;;;;;;;14.57;11.65;;;2.80;99.90;;;;;;5026035;28;20448;-51
2023/01/28 09:31:22;;;;;;;16.58;12.20;;;2.80;99.90;;;;;;5030305;28;20046;-53
2023/01/28 09:33:55;;;;;;;17.42;12.63;;;3.00;99.90;;;;;;5030800;28;20049;-48
2023/01/28 09:36:22;;;;;;;15.02;11.75;;;2.80;99.90;;;;;;5031486;28;20062;-50
2023/01/28 09:38:49;;;;;;;16.77;12.13;;;2.80;99.90;;;;;;5029726;28;20108;-46
2023/01/28 09:41:24;;;;;;;14.52;11.45;;;2.80;99.90;;;;;;5029907;28;20053;-48
2023/01/28 09:43:58;;;;;;;16.17;11.88;;;2.80;99.90;;;;;;5030393;28;20041;-50
2023/01/28 09:46:25;;;;;;;17.52;12.50;;;2.80;99.90;;;;;;5029980;28;20127;-50
2023/01/28 09:48:54;;;;;;;13.82;11.75;;;2.80;99.90;;;;;;5031177;28;20058;-48
2023/01/28 09:51:28;;;;;;;15.65;12.07;;;2.80;99.90;;;;;;5049806;28;20048;-51
2023/01/28 09:53:56;;;;;;;14.60;11.80;;;2.80;99.90;;;;;;5026629;28;20547;-53
2023/01/28 09:56:26;;;;;;;13.73;11.88;;;2.80;99.90;;;;;;5032811;28;20093;-53
2023/01/28 10:01:51;;;;;;;16.58;11.75;;;3.10;99.90;;;;;;4931339;22;20084;-50
2023/01/28 10:04:26;;;;;;;15.20;11.77;;;3.20;99.90;;;;;;5012462;28;20053;-48
2023/01/28 10:06:58;;;;;;;13.57;11.32;;;3.30;99.90;;;;;;5014927;28;20300;-49
2023/01/28 10:09:31;;;;;;;15.48;12.20;;;3.50;99.90;;;;;;5008226;28;20049;-50
2023/01/28 10:12:05;;;;;;;16.48;12.60;;;3.60;99.90;;;;;;5009499;28;20082;-43
2023/01/28 10:14:48;;;;;;;17.20;12.38;;;3.70;99.90;;;;;;5011291;28;20124;-45
2023/01/28 10:17:17;;;;;;;14.70;11.25;;;3.80;99.90;;;;;;4996609;28;20085;-45
2023/01/28 10:19:46;;;;;;;13.10;11.02;;;3.90;99.90;;;;;;5013773;28;20050;-39
2023/01/28 10:22:15;;;;;;;14.45;12.05;;;4.00;99.90;;;;;;5007413;28;20572;-49
2023/01/28 10:24:45;;;;;;;14.52;10.80;;;4.00;99.90;;;;;;5004621;28;20470;-45
2023/01/28 10:27:12;;;;;;;15.80;11.50;;;4.10;99.90;;;;;;5009562;28;20046;-48
2023/01/28 10:29:42;;;;;;;12.95;10.80;;;4.20;99.90;;;;;;5006090;28;20096;-45
2023/01/28 10:32:16;;;;;;;12.85;10.45;;;4.40;99.90;;;;;;5013541;28;20057;-47
2023/01/28 10:34:44;;;;;;;13.20;10.52;;;4.40;99.90;;;;;;5013454;28;20088;-48
2023/01/28 10:37:12;;;;;;;12.05;9.52;;;4.50;99.90;;;;;;5014631;28;20046;-46
2023/01/28 10:39:39;;;;;;;13.52;10.57;;;4.50;99.90;;;;;;5011712;28;20116;-49
2023/01/28 10:42:15;;;;;;;11.70;8.85;;;4.50;99.90;;;;;;5012483;28;20057;-45
2023/01/28 10:44:42;;;;;;;10.60;9.32;;;4.60;99.90;;;;;;5008093;28;20490;-46
2023/01/28 10:47:11;;;;;;;11.82;9.25;;;4.60;99.90;;;;;;5012526;28;20050;-47
2023/01/28 10:49:40;;;;;;;12.88;8.68;;;4.70;99.90;;;;;;5010330;28;20070;-48
2023/01/28 10:52:12;;;;;;;13.38;8.20;;;4.70;99.90;;;;;;5013084;28;20481;-47
2023/01/28 10:54:39;;;;;;;10.13;8.50;;;4.70;99.90;;;;;;5013987;28;20100;-47
2023/01/28 10:57:11;;;;;;;16.02;10.25;;;4.80;99.90;;;;;;5006489;28;20513;-48
2023/01/28 10:59:40;;;;;;;;;;;4.80;99.90;;;;;;5012839;28;20071;-46
2023/01/28 11:02:26;;;;;;;8.50;7.15;;;4.80;99.90;;;;;;5007763;28;19921;-44
2023/01/28 11:05:01;;;;;;;11.20;7.60;;;4.80;99.90;;;;;;5005726;28;20453;-47
2023/01/28 11:07:29;;;;;;;9.40;6.28;;;4.80;99.90;;;;;;5012114;28;20046;-47
2023/01/28 11:09:56;;;;;;;10.98;6.10;;;4.90;99.90;;;;;;5007340;28;20108;-43
2023/01/28 11:12:24;;;;;;;10.18;6.60;;;4.90;99.90;;;;;;5004900;28;20105;-49
2023/01/28 11:14:52;;;;;;;10.13;6.78;;;4.90;99.90;;;;;;5012032;28;20049;-48
2023/01/28 11:17:20;;;;;;;10.75;8.25;;;4.90;99.90;;;;;;5011558;28;20104;-47
2023/01/28 11:19:46;;;;;;;13.63;8.35;;;5.00;99.90;;;;;;5008475;28;20054;-47
2023/01/28 11:22:22;;;;;;;10.65;8.52;;;5.10;99.90;;;;;;5012051;28;20108;-49
2023/01/28 11:24:50;;;;;;;8.45;7.55;;;5.10;99.90;;;;;;5009864;28;20050;-45
2023/01/28 11:27:17;;;;;;;13.20;9.80;;;5.20;99.90;;;;;;5010556;28;20082;-46
2023/01/28 11:29:44;;;;;;;11.50;9.02;;;5.20;99.90;;;;;;5012729;28;20124;-48
2023/01/28 11:32:19;;;;;;;11.55;9.43;;;5.30;99.90;;;;;;5012972;28;20042;-46
2023/01/28 11:34:49;;;;;;;12.27;9.10;;;5.40;99.90;;;;;;5013213;28;20053;-46
2023/01/28 11:37:17;;;;;;;11.65;9.07;;;5.40;99.90;;;;;;5012233;28;20063;-49
2023/01/28 11:39:44;;;;;;;10.50;8.63;;;5.50;99.90;;;;;;5012210;28;20085;-49
2023/01/28 11:42:15;;;;;;;11.80;8.65;;;5.50;99.90;;;;;;5013394;28;20050;-47
2023/01/28 11:44:42;;;;;;;10.45;8.48;;;5.60;99.90;;;;;;5013224;28;20107;-46
2023/01/28 11:47:27;;;;;;;14.45;8.82;;;5.70;99.90;;;;;;5010841;28;20493;-47
2023/01/28 11:50:05;;;;;;;13.43;9.45;;;5.80;99.90;;;;;;5011224;28;20085;-46
2023/01/28 11:52:36;;;;;;;13.75;9.55;;;5.80;99.90;;;;;;5008804;28;20115;-48
2023/01/28 11:55:11;;;;;;;13.73;10.00;;;5.70;99.90;;;;;;5013727;28;20485;-49
2023/01/28 11:57:41;;;;;;;15.45;10.85;;;5.70;99.90;;;;;;5013388;28;20100;-49
2023/01/28 12:00:35;;;;;;;15.57;11.33;;;5.70;99.90;;;;;;5013659;28;20050;-51
2023/01/28 12:03:17;;;;;;;16.83;11.50;;;5.70;99.90;;;;;;5010991;28;20108;-47
2023/01/28 12:05:47;;;;;;;;;;;5.70;99.90;;;;;;5013168;28;20053;-52
2023/01/28 12:08:18;;;;;;;18.20;12.23;;;5.50;99.90;;;;;;5012467;28;19925;-51
2023/01/28 12:10:48;;;;;;;17.35;11.93;;;5.50;99.90;;;;;;5012601;28;20041;-51
2023/01/28 12:13:25;;;;;;;15.73;11.55;;;5.70;99.90;;;;;;5011650;28;20073;-48
2023/01/28 12:16:08;;;;;;;17.65;12.32;;;5.90;99.90;;;;;;5013427;28;20100;-48
2023/01/28 12:19:00;;;;;;;17.20;12.10;;;6.00;99.90;;;;;;5013404;28;20049;-45
2023/01/28 12:21:32;;;;;;;18.13;12.85;;;6.10;99.90;;;;;;5003170;28;20112;-46
2023/01/28 12:24:06;;;;;;;18.10;13.10;;;6.10;99.90;;;;;;5012900;28;20112;-48
2023/01/28 12:26:36;;;;;;;22.55;13.13;;;6.00;99.90;;;;;;5010379;28;20078;-42
2023/01/28 12:29:15;;;;;;;23.67;14.40;;;6.00;99.90;;;;;;5004108;28;20163;-41
2023/01/28 12:31:52;;;;;;;23.98;14.70;;;6.00;99.90;;;;;;5005732;28;20548;-46
2023/01/28 12:34:41;;;;;;;24.98;15.30;;;6.00;99.90;;;;;;5008673;28;20081;-45
2023/01/28 12:37:10;;;;;;;27.70;15.70;;;6.10;99.90;;;;;;5002490;28;20053;-50
2023/01/28 12:39:44;;;;;;;29.45;16.45;;;6.10;99.90;;;;;;5010859;28;20501;-50
2023/01/28 12:42:12;;;;;;;28.13;15.80;;;6.00;99.90;;;;;;5010073;28;20053;-47
2023/01/28 12:44:42;;;;;;;29.50;15.73;;;6.00;99.90;;;;;;5011437;28;20053;-46
2023/01/28 12:47:10;;;;;;;24.23;13.82;;;6.00;99.90;;;;;;5012365;28;20041;-48
2023/01/28 12:49:39;;;;;;;23.42;12.90;;;6.00;99.90;;;;;;5011403;28;20579;-41
2023/01/28 12:52:09;;;;;;;23.42;11.68;;;5.90;99.90;;;;;;5012048;28;20075;-50
2023/01/28 12:54:37;;;;;;;22.13;13.00;;;5.80;99.90;;;;;;5007735;28;20042;-47
2023/01/28 12:57:03;;;;;;;20.70;12.45;;;5.80;99.90;;;;;;5007067;28;20049;-48
2023/01/28 12:59:32;;;;;;;18.83;10.90;;;5.70;99.90;;;;;;5007009;28;20049;-49
2023/01/28 13:02:15;;;;;;;18.60;11.32;;;5.80;99.90;;;;;;5010998;28;20054;-49
2023/01/28 13:04:44;;;;;;;17.73;11.07;;;5.80;99.90;;;;;;5013059;28;20057;-46
2023/01/28 13:07:13;;;;;;;18.13;11.35;;;5.80;99.90;;;;;;5011463;28;20077;-47
2023/01/28 13:09:49;;;;;;;19.10;11.02;;;5.90;99.90;;;;;;5012595;28;20054;-48
2023/01/28 13:12:16;;;;;;;20.88;11.63;;;5.90;99.90;;;;;;5012967;28;20062;-48
2023/01/28 13:14:44;;;;;;;18.52;12.10;;;5.90;99.90;;;;;;5010995;28;20493;-47
2023/01/28 13:17:12;;;;;;;21.17;12.60;;;6.00;99.90;;;;;;5010926;28;20058;-45
2023/01/28 13:19:40;;;;;;;19.05;12.82;;;6.00;99.90;;;;;;5011852;28;20057;-48